ICE334 BIKF-ENTC
Flight info
| Callsign | ICE334 |
|---|---|
| Flight time | N/A |
| Altitude | 33000 |
| Route | LUTER3D LUTER DCT 66N010W 68N000W/N0417F330 DCT LIPSA DCT GILGU |
| Aircraft | A21N/M-SDE2E3FGHIRWXY/LB1 |
Departure
| Time | N/A |
|---|---|
| Airport | Keflavik International Airport (BIKF) |
Arrival
| Time | 2026-04-30 18:25 |
|---|---|
| Airport | Tromsø Airport (ENTC) |
| Time | Latitude | Longitude | Altitude | Speed | Heading |
|---|---|---|---|---|---|
| 2026-04-30 17:39 | 68.69296 | 5.83392 | 32896 ft | 503 kts | 75° |
| 2026-04-30 17:42 | 68.78912 | 6.76238 | 32919 ft | 502 kts | 76° |
| 2026-04-30 17:43 | 68.83525 | 7.22930 | 32919 ft | 505 kts | 76° |
| 2026-04-30 17:44 | 68.88904 | 7.79388 | 32920 ft | 505 kts | 77° |
| 2026-04-30 17:47 | 68.96646 | 8.64774 | 32932 ft | 508 kts | 77° |
| 2026-04-30 17:48 | 69.02343 | 9.31333 | 32941 ft | 503 kts | 78° |
| 2026-04-30 17:50 | 69.08532 | 10.07680 | 32918 ft | 504 kts | 78° |
| 2026-04-30 17:52 | 69.12955 | 10.65442 | 32949 ft | 505 kts | 79° |
| 2026-04-30 17:54 | 69.19213 | 11.52338 | 32957 ft | 503 kts | 79° |
| 2026-04-30 17:56 | 69.24408 | 12.29707 | 32944 ft | 502 kts | 80° |
| 2026-04-30 17:58 | 69.28066 | 12.87814 | 32969 ft | 502 kts | 81° |
| 2026-04-30 18:00 | 69.32601 | 13.65719 | 32976 ft | 502 kts | 81° |
| 2026-04-30 18:01 | 69.35214 | 14.14462 | 32989 ft | 500 kts | 82° |
| 2026-04-30 18:02 | 69.38142 | 14.72565 | 31979 ft | 486 kts | 82° |
| 2026-04-30 18:03 | 69.39488 | 15.00820 | 30277 ft | 476 kts | 82° |
| 2026-04-30 18:04 | 69.40762 | 15.28439 | 28562 ft | 463 kts | 82° |
| 2026-04-30 18:05 | 69.42333 | 15.63909 | 26601 ft | 442 kts | 82° |
| 2026-04-30 18:06 | 69.43774 | 15.98016 | 24780 ft | 428 kts | 83° |
| 2026-04-30 18:07 | 69.45126 | 16.31540 | 22852 ft | 424 kts | 83° |
| 2026-04-30 18:08 | 69.46083 | 16.56295 | 21331 ft | 418 kts | 83° |
| 2026-04-30 18:09 | 69.47181 | 16.86128 | 19680 ft | 405 kts | 83° |
| 2026-04-30 18:10 | 69.48289 | 17.17537 | 17986 ft | 395 kts | 84° |
| 2026-04-30 18:11 | 69.49459 | 17.48212 | 16321 ft | 384 kts | 74° |
| 2026-04-30 18:11 | 69.54007 | 17.64723 | 15240 ft | 341 kts | 31° |
| 2026-04-30 18:12 | 69.59380 | 17.77957 | 14175 ft | 340 kts | 36° |
| 2026-04-30 18:13 | 69.62827 | 17.87269 | 13432 ft | 340 kts | 37° |
| 2026-04-30 18:13 | 69.67943 | 18.01355 | 12293 ft | 338 kts | 38° |
| 2026-04-30 18:14 | 69.71302 | 18.10657 | 11531 ft | 336 kts | 38° |
| 2026-04-30 18:15 | 69.76308 | 18.24645 | 10434 ft | 327 kts | 39° |
| 2026-04-30 18:15 | 69.81064 | 18.37981 | 9351 ft | 313 kts | 39° |
| 2026-04-30 18:16 | 69.84175 | 18.46766 | 8629 ft | 311 kts | 40° |
| 2026-04-30 18:16 | 69.87255 | 18.55520 | 7928 ft | 310 kts | 39° |
| 2026-04-30 18:17 | 69.88796 | 18.59900 | 7591 ft | 309 kts | 39° |
| 2026-04-30 18:17 | 69.90330 | 18.64273 | 7234 ft | 309 kts | 40° |
| 2026-04-30 18:17 | 69.93353 | 18.72932 | 6854 ft | 294 kts | 40° |
| 2026-04-30 18:18 | 69.94740 | 18.76915 | 6888 ft | 276 kts | 40° |
| 2026-04-30 18:18 | 69.95879 | 18.81528 | 6861 ft | 282 kts | 69° |
| 2026-04-30 18:18 | 69.96127 | 18.87038 | 6644 ft | 277 kts | 103° |
| 2026-04-30 18:18 | 69.95641 | 18.92410 | 6363 ft | 272 kts | 113° |
| 2026-04-30 18:19 | 69.95074 | 18.97657 | 6125 ft | 264 kts | 112° |
| 2026-04-30 18:19 | 69.94557 | 19.02624 | 5928 ft | 252 kts | 117° |
| 2026-04-30 18:19 | 69.93620 | 19.06513 | 5634 ft | 226 kts | 153° |
| 2026-04-30 18:19 | 69.92232 | 19.07934 | 5447 ft | 202 kts | 187° |
| 2026-04-30 18:20 | 69.90897 | 19.07392 | 5175 ft | 189 kts | 205° |
| 2026-04-30 18:20 | 69.89646 | 19.06299 | 4850 ft | 188 kts | 202° |
| 2026-04-30 18:20 | 69.88379 | 19.05397 | 4545 ft | 187 kts | 202° |
| 2026-04-30 18:20 | 69.87144 | 19.04555 | 4461 ft | 176 kts | 205° |
| 2026-04-30 18:21 | 69.85944 | 19.03729 | 4444 ft | 180 kts | 204° |
| 2026-04-30 18:21 | 69.84685 | 19.02875 | 4318 ft | 188 kts | 201° |
| 2026-04-30 18:21 | 69.83430 | 19.02029 | 4036 ft | 181 kts | 201° |
| 2026-04-30 18:21 | 69.82228 | 19.01218 | 3706 ft | 175 kts | 200° |
| 2026-04-30 18:22 | 69.81095 | 19.00454 | 3409 ft | 161 kts | 201° |
| 2026-04-30 18:22 | 69.79055 | 18.99079 | 2791 ft | 139 kts | 201° |
| 2026-04-30 18:22 | 69.78151 | 18.98465 | 2532 ft | 132 kts | 201° |
| 2026-04-30 18:23 | 69.77253 | 18.97859 | 2316 ft | 132 kts | 200° |
| 2026-04-30 18:23 | 69.76365 | 18.97261 | 2098 ft | 134 kts | 200° |
| 2026-04-30 18:23 | 69.75468 | 18.96661 | 1852 ft | 133 kts | 199° |
| 2026-04-30 18:23 | 69.74563 | 18.96054 | 1590 ft | 133 kts | 199° |
| 2026-04-30 18:24 | 69.72751 | 18.94833 | 1065 ft | 133 kts | 198° |
| 2026-04-30 18:24 | 69.71855 | 18.94228 | 793 ft | 131 kts | 197° |
| 2026-04-30 18:24 | 69.70970 | 18.93641 | 599 ft | 130 kts | 197° |
| 2026-04-30 18:25 | 69.70099 | 18.93073 | 356 ft | 127 kts | 197° |
| 2026-04-30 18:25 | 69.68416 | 18.91937 | 36 ft | 111 kts | 194° |
| 2026-04-30 18:25 | 69.67925 | 18.91611 | 44 ft | 36 kts | 192° |
| 2026-04-30 18:26 | 69.67732 | 18.91392 | 44 ft | 9 kts | 270° |
| 2026-04-30 18:26 | 69.67745 | 18.91196 | 40 ft | 11 kts | 285° |
| 2026-04-30 18:26 | 69.67815 | 18.91154 | 40 ft | 13 kts | 14° |
| 2026-04-30 18:27 | 69.67915 | 18.91093 | 38 ft | 8 kts | 285° |
| 2026-04-30 18:27 | 69.67926 | 18.90952 | 40 ft | 4 kts | 282° |
| 2026-04-30 18:28 | 69.67930 | 18.90898 | 38 ft | 0 kts | 283° |